Time;durP1;ratioP1;P1;durP2;ratioP2;P2;SDS_P1;SDS_P2;PMS_P1;PMS_P2;Temp;Humidity;BMP_temperature;BMP_pressure;BME280_temperature;BME280_humidity;BME280_pressure;Samples;Min_cycle;Max_cycle;Signal;HPM_P1;HPM_P2
2020/12/16 10:47:42;;;;;;;2.03;1.20;;;9.70;99.90;;;;;;4928512;23;20325;-72
2020/12/16 10:50:09;;;;;;;2.53;1.10;;;9.80;99.90;;;;;;4918831;29;20209;-71
2020/12/16 10:52:35;;;;;;;5.13;1.67;;;9.90;99.90;;;;;;4918828;29;20600;-72
2020/12/16 10:55:01;;;;;;;2.53;1.40;;;9.90;99.90;;;;;;4918843;29;20257;-72
2020/12/16 10:57:28;;;;;;;2.70;1.33;;;10.00;99.90;;;;;;4918962;29;20213;-72
2020/12/16 10:59:54;;;;;;;2.63;1.07;;;10.00;99.90;;;;;;4918599;29;20216;-72
2020/12/16 11:02:21;;;;;;;3.30;1.50;;;10.00;99.90;;;;;;4918586;29;20230;-72
2020/12/16 11:04:48;;;;;;;2.37;1.20;;;10.00;99.90;;;;;;4918389;29;20216;-72
2020/12/16 11:07:14;;;;;;;2.33;1.20;;;10.00;99.90;;;;;;4918514;29;20214;-72
2020/12/16 11:09:40;;;;;;;2.67;1.37;;;10.00;99.90;;;;;;4918543;29;20338;-71
2020/12/16 11:12:06;;;;;;;2.87;1.60;;;10.10;99.90;;;;;;4918295;29;20272;-72
2020/12/16 11:14:33;;;;;;;2.60;1.20;;;10.20;99.90;;;;;;4918276;29;20529;-72
2020/12/16 11:16:59;;;;;;;3.67;1.90;;;10.30;99.90;;;;;;4918647;29;20305;-71
2020/12/16 11:19:25;;;;;;;2.67;1.20;;;10.40;99.90;;;;;;4918523;29;20216;-72
2020/12/16 11:21:53;;;;;;;2.87;1.23;;;10.40;99.90;;;;;;4905408;29;20205;-73
2020/12/16 11:24:20;;;;;;;2.87;1.67;;;10.30;99.90;;;;;;4905467;29;20215;-76
2020/12/16 11:26:49;;;;;;;3.27;1.27;;;10.30;99.90;;;;;;4898768;29;20242;-72
2020/12/16 11:29:18;;;;;;;3.77;1.53;;;10.30;99.90;;;;;;4899113;29;20657;-73
2020/12/16 11:31:46;;;;;;;3.63;1.80;;;10.40;99.90;;;;;;4898996;29;20250;-73
2020/12/16 11:34:13;;;;;;;3.67;1.80;;;10.40;99.90;;;;;;4899287;29;20237;-72
2020/12/16 11:36:42;;;;;;;4.63;1.70;;;10.50;99.90;;;;;;4899171;29;20210;-72
2020/12/16 11:39:10;;;;;;;2.50;1.53;;;10.50;99.90;;;;;;4899234;29;20222;-73
2020/12/16 11:41:40;;;;;;;2.83;1.43;;;10.60;99.90;;;;;;4899179;29;20206;-73
2020/12/16 11:44:06;;;;;;;2.40;1.50;;;10.60;99.90;;;;;;4899247;29;20259;-73
2020/12/16 11:46:33;;;;;;;4.47;1.87;;;10.60;99.90;;;;;;4898903;29;20260;-73
2020/12/16 11:49:00;;;;;;;3.53;1.57;;;10.60;99.90;;;;;;4898972;29;20218;-73
2020/12/16 11:51:27;;;;;;;3.50;1.60;;;10.60;99.90;;;;;;4898858;29;20614;-73
2020/12/16 11:53:54;;;;;;;2.53;1.60;;;10.60;99.90;;;;;;4898932;29;20313;-73
2020/12/16 11:56:22;;;;;;;4.03;1.60;;;10.70;99.90;;;;;;4899219;29;20214;-73
2020/12/16 11:58:49;;;;;;;2.40;1.50;;;10.80;99.90;;;;;;4898939;29;20206;-73
2020/12/16 12:01:16;;;;;;;3.47;1.57;;;10.80;99.90;;;;;;4898334;29;20678;-72
2020/12/16 12:03:43;;;;;;;4.07;1.60;;;10.90;99.90;;;;;;4898560;29;20266;-73
2020/12/16 12:06:10;;;;;;;2.63;1.70;;;10.90;99.90;;;;;;4898498;29;20286;-73
2020/12/16 12:08:36;;;;;;;2.93;1.50;;;11.00;99.90;;;;;;4898643;29;20210;-72
2020/12/16 12:11:02;;;;;;;2.13;1.47;;;10.80;99.90;;;;;;4898772;29;20207;-73
2020/12/16 12:13:45;;;;;;;2.83;1.57;;;11.00;99.90;;;;;;4877773;29;20585;-72
2020/12/16 12:16:13;;;;;;;3.30;1.20;;;11.10;99.90;;;;;;4905146;29;20217;-72
2020/12/16 12:18:40;;;;;;;1.87;1.10;;;11.00;99.90;;;;;;4908910;29;20209;-72
2020/12/16 12:21:06;;;;;;;3.77;1.47;;;11.00;99.90;;;;;;4911121;29;20214;-72
2020/12/16 12:23:33;;;;;;;5.03;1.47;;;11.00;99.90;;;;;;4910394;29;20234;-72
2020/12/16 12:25:59;;;;;;;1.70;1.07;;;11.00;99.90;;;;;;4913985;29;20244;-72
2020/12/16 12:28:25;;;;;;;2.10;1.30;;;11.00;99.90;;;;;;4913256;29;20551;-72
2020/12/16 12:30:52;;;;;;;1.90;1.37;;;11.00;99.90;;;;;;4912701;29;20206;-73
2020/12/16 12:33:19;;;;;;;1.87;1.20;;;11.00;99.90;;;;;;4911524;29;20282;-71
2020/12/16 12:35:46;;;;;;;2.23;1.10;;;11.00;99.90;;;;;;4916195;29;20210;-72
2020/12/16 12:38:12;;;;;;;2.50;1.30;;;11.00;99.90;;;;;;4912316;29;20292;-73
2020/12/16 12:40:38;;;;;;;1.97;1.10;;;11.00;99.90;;;;;;4912997;29;20202;-72
2020/12/16 12:43:04;;;;;;;2.43;1.10;;;11.00;99.90;;;;;;4915722;29;20604;-72
2020/12/16 12:45:32;;;;;;;2.13;1.20;;;11.00;99.90;;;;;;4912573;29;20237;-72
2020/12/16 12:47:59;;;;;;;2.13;1.30;;;11.10;99.90;;;;;;4903510;29;20223;-72
2020/12/16 12:50:25;;;;;;;1.87;1.13;;;11.10;99.90;;;;;;4901477;29;20217;-72
2020/12/16 12:52:52;;;;;;;1.20;0.97;;;11.00;99.90;;;;;;4905044;29;20253;-72
2020/12/16 12:55:18;;;;;;;2.03;1.30;;;11.10;99.90;;;;;;4910462;29;20221;-73
2020/12/16 12:57:44;;;;;;;2.00;1.07;;;11.30;99.90;;;;;;4908504;29;20209;-72
2020/12/16 13:00:12;;;;;;;1.77;0.90;;;11.30;99.90;;;;;;4907561;29;20213;-72
2020/12/16 13:02:38;;;;;;;1.47;0.97;;;11.40;99.90;;;;;;4909236;29;20230;-72
2020/12/16 13:05:06;;;;;;;2.10;0.90;;;11.50;99.90;;;;;;4910794;29;20541;-72
2020/12/16 13:07:34;;;;;;;1.70;0.90;;;11.60;99.90;;;;;;4913467;29;20209;-72
2020/12/16 13:10:01;;;;;;;2.30;1.20;;;11.60;99.90;;;;;;4914072;29;20216;-72
2020/12/16 13:12:27;;;;;;;2.03;0.80;;;11.70;99.90;;;;;;4911322;29;20229;-72
2020/12/16 13:14:54;;;;;;;2.33;0.80;;;11.70;99.90;;;;;;4909338;29;20205;-72
2020/12/16 13:17:20;;;;;;;1.93;0.90;;;11.70;99.90;;;;;;4910456;29;20278;-72
2020/12/16 13:19:46;;;;;;;1.60;1.20;;;11.70;99.90;;;;;;4915330;29;20217;-72
2020/12/16 13:22:18;;;;;;;1.33;0.90;;;11.60;99.90;;;;;;4901486;29;20355;-72
2020/12/16 13:24:45;;;;;;;1.10;0.70;;;11.60;99.90;;;;;;4910578;29;20210;-72
2020/12/16 13:27:11;;;;;;;1.10;0.63;;;11.70;99.90;;;;;;4906171;29;20238;-72
2020/12/16 13:29:37;;;;;;;1.93;0.80;;;11.70;99.90;;;;;;4915757;29;20205;-73
2020/12/16 13:32:03;;;;;;;1.67;0.90;;;11.60;99.90;;;;;;4910953;29;20213;-72
2020/12/16 13:34:30;;;;;;;0.90;0.50;;;11.70;99.90;;;;;;4918107;29;20209;-72
2020/12/16 13:36:56;;;;;;;1.20;0.70;;;11.60;99.90;;;;;;4919803;29;20665;-72
2020/12/16 13:39:23;;;;;;;1.00;0.80;;;11.60;99.90;;;;;;4919931;29;20213;-72
2020/12/16 13:41:49;;;;;;;1.33;0.80;;;11.60;99.90;;;;;;4919975;29;20214;-72
2020/12/16 13:44:16;;;;;;;1.37;0.50;;;11.60;99.90;;;;;;4920356;29;20597;-72
2020/12/16 13:46:43;;;;;;;1.53;0.83;;;11.60;99.90;;;;;;4919473;29;20264;-72
2020/12/16 13:49:09;;;;;;;1.20;0.80;;;11.50;99.90;;;;;;4920074;29;20210;-72
2020/12/16 13:51:35;;;;;;;1.77;0.83;;;11.50;99.90;;;;;;4902356;29;20666;-73
2020/12/16 13:54:01;;;;;;;0.90;0.60;;;11.60;99.90;;;;;;4901042;29;20585;-72
2020/12/16 13:56:28;;;;;;;1.63;0.60;;;11.60;99.90;;;;;;4900980;29;20297;-72
2020/12/16 13:58:55;;;;;;;1.90;0.60;;;11.70;99.90;;;;;;4900540;29;20582;-72
2020/12/16 14:01:24;;;;;;;1.63;0.67;;;11.80;99.90;;;;;;4900009;29;20665;-73
2020/12/16 14:03:50;;;;;;;1.20;0.60;;;11.90;99.90;;;;;;4900828;29;20226;-72
2020/12/16 14:06:16;;;;;;;1.63;0.60;;;12.00;99.90;;;;;;4900699;29;20238;-72
2020/12/16 14:08:43;;;;;;;0.73;0.53;;;12.10;99.90;;;;;;4900827;29;20210;-72
2020/12/16 14:11:10;;;;;;;1.47;0.60;;;12.30;99.90;;;;;;4900742;29;20250;-73
2020/12/16 14:13:37;;;;;;;1.50;0.60;;;12.20;99.90;;;;;;4900467;29;20724;-73
2020/12/16 14:16:06;;;;;;;1.00;0.47;;;12.30;99.90;;;;;;4900682;29;20222;-73
2020/12/16 14:18:32;;;;;;;1.13;0.60;;;12.50;99.90;;;;;;4900771;29;20266;-73
2020/12/16 14:20:58;;;;;;;0.67;0.50;;;12.40;99.90;;;;;;4900614;29;20210;-73
2020/12/16 14:23:24;;;;;;;1.50;0.60;;;12.30;99.90;;;;;;4900507;29;20689;-73
2020/12/16 14:25:51;;;;;;;0.70;0.60;;;12.30;99.90;;;;;;4900289;29;20237;-72
2020/12/16 14:28:17;;;;;;;1.03;0.50;;;12.30;99.90;;;;;;4900397;29;20234;-73
2020/12/16 14:30:44;;;;;;;3.03;0.60;;;12.30;99.90;;;;;;4900485;29;20665;-73
2020/12/16 14:33:10;;;;;;;1.00;0.57;;;12.40;99.90;;;;;;4900218;29;20238;-73
2020/12/16 14:35:36;;;;;;;1.23;0.80;;;12.10;99.90;;;;;;4900337;29;20670;-73
2020/12/16 14:38:04;;;;;;;0.87;0.60;;;12.10;99.90;;;;;;4900313;29;20214;-73
2020/12/16 14:40:30;;;;;;;1.53;0.60;;;12.10;99.90;;;;;;4899687;29;20358;-73
2020/12/16 14:42:56;;;;;;;1.03;0.60;;;12.10;99.90;;;;;;4900023;29;20234;-73
2020/12/16 14:45:22;;;;;;;1.47;0.80;;;12.00;99.90;;;;;;4900395;29;20235;-73
2020/12/16 14:47:51;;;;;;;0.70;0.40;;;12.00;99.90;;;;;;4899838;29;20218;-73
2020/12/16 14:50:17;;;;;;;1.67;0.73;;;12.00;99.90;;;;;;4900188;29;20562;-73
2020/12/16 14:52:44;;;;;;;1.00;0.50;;;12.00;99.90;;;;;;4899876;29;20237;-73
2020/12/16 14:55:10;;;;;;;1.03;0.53;;;11.80;99.90;;;;;;4899577;29;20669;-73
2020/12/16 14:57:36;;;;;;;0.60;0.40;;;11.80;99.90;;;;;;4900073;29;20210;-73
2020/12/16 15:00:04;;;;;;;0.77;0.50;;;12.00;99.90;;;;;;4899782;29;20215;-73
2020/12/16 15:02:30;;;;;;;1.17;0.70;;;11.90;99.90;;;;;;4899806;29;20257;-73
2020/12/16 15:04:57;;;;;;;1.20;0.77;;;11.90;99.90;;;;;;4899581;29;20677;-73
2020/12/16 15:07:23;;;;;;;2.23;0.90;;;11.90;99.90;;;;;;4899640;29;20242;-73
2020/12/16 15:09:51;;;;;;;0.90;0.60;;;11.90;99.90;;;;;;4899603;29;20569;-73
2020/12/16 15:12:17;;;;;;;1.47;0.80;;;11.80;99.90;;;;;;4899626;29;20222;-73
2020/12/16 15:14:43;;;;;;;2.37;0.73;;;11.70;99.90;;;;;;4899567;29;20274;-73
2020/12/16 15:17:09;;;;;;;1.60;0.73;;;11.60;99.90;;;;;;4899306;29;20207;-73
2020/12/16 15:19:36;;;;;;;0.90;0.50;;;11.60;99.90;;;;;;4899626;29;20222;-73
2020/12/16 15:22:03;;;;;;;2.17;1.00;;;11.70;99.90;;;;;;4899527;29;20650;-73
2020/12/16 15:24:30;;;;;;;2.50;0.67;;;11.60;99.90;;;;;;4899169;29;20210;-73
2020/12/16 15:26:56;;;;;;;0.93;0.60;;;11.50;99.90;;;;;;4899287;29;20290;-73
2020/12/16 15:29:25;;;;;;;0.87;0.60;;;11.40;99.90;;;;;;4899311;29;20221;-73
2020/12/16 15:31:53;;;;;;;1.23;0.60;;;11.30;99.90;;;;;;4899302;29;20297;-73
2020/12/16 15:34:19;;;;;;;1.20;0.70;;;11.30;99.90;;;;;;4899235;29;20210;-73
2020/12/16 15:36:50;;;;;;;1.17;0.60;;;11.20;99.90;;;;;;4898951;29;20217;-73
2020/12/16 15:39:17;;;;;;;0.63;0.60;;;11.20;99.90;;;;;;4899044;29;20215;-73
2020/12/16 15:41:49;;;;;;;1.00;0.83;;;11.30;99.90;;;;;;4898903;29;20799;-73
2020/12/16 15:44:16;;;;;;;2.03;0.77;;;11.30;99.90;;;;;;4898895;29;20234;-73
2020/12/16 15:46:45;;;;;;;1.13;0.63;;;11.30;99.90;;;;;;4898754;29;20246;-73
2020/12/16 15:49:11;;;;;;;1.33;0.70;;;11.30;99.90;;;;;;4898805;29;20214;-73
2020/12/16 15:51:38;;;;;;;1.07;0.60;;;11.30;99.90;;;;;;4898258;29;20214;-73
2020/12/16 15:54:04;;;;;;;1.07;0.73;;;11.30;99.90;;;;;;4898971;29;20282;-73
2020/12/16 15:56:31;;;;;;;1.00;0.70;;;11.30;99.90;;;;;;4898848;29;20214;-73
2020/12/16 15:58:57;;;;;;;3.17;0.87;;;11.20;99.90;;;;;;4898664;29;20210;-73
2020/12/16 16:01:23;;;;;;;1.60;0.90;;;11.20;99.90;;;;;;4898489;29;20210;-73
2020/12/16 16:03:49;;;;;;;1.00;0.77;;;11.10;99.90;;;;;;4898682;29;20238;-72
2020/12/16 16:06:16;;;;;;;1.53;0.90;;;11.10;99.90;;;;;;4898879;29;20250;-73
2020/12/16 16:08:43;;;;;;;1.53;0.80;;;11.00;99.90;;;;;;4898473;29;20269;-73
2020/12/16 16:11:09;;;;;;;1.20;0.80;;;11.00;99.90;;;;;;4900844;29;20683;-72
2020/12/16 16:13:36;;;;;;;2.03;0.90;;;11.00;99.90;;;;;;4909452;29;20248;-72
2020/12/16 16:16:03;;;;;;;1.23;0.80;;;10.90;99.90;;;;;;4907475;29;20251;-72
2020/12/16 16:18:29;;;;;;;1.77;0.90;;;11.00;99.90;;;;;;4903987;29;20211;-72
2020/12/16 16:20:55;;;;;;;1.83;1.17;;;10.90;99.90;;;;;;4916004;29;20213;-73
2020/12/16 16:23:22;;;;;;;1.50;0.63;;;10.90;99.90;;;;;;4911450;29;20241;-72
2020/12/16 16:25:49;;;;;;;1.03;0.70;;;10.90;99.90;;;;;;4909959;29;20245;-72
2020/12/16 16:28:15;;;;;;;1.40;0.90;;;11.00;99.90;;;;;;4915084;29;20206;-72
2020/12/16 16:30:42;;;;;;;1.20;0.83;;;11.00;99.90;;;;;;4913531;29;20213;-72
2020/12/16 16:33:08;;;;;;;2.30;0.80;;;11.10;99.90;;;;;;4908200;29;20225;-72
2020/12/16 16:35:35;;;;;;;1.30;1.00;;;11.10;99.90;;;;;;4902462;29;20214;-72
2020/12/16 16:38:01;;;;;;;1.73;0.83;;;11.00;99.90;;;;;;4902553;29;20210;-72
2020/12/16 16:40:28;;;;;;;1.70;1.00;;;11.10;99.90;;;;;;4906847;29;20248;-72
2020/12/16 16:42:55;;;;;;;2.20;1.27;;;11.10;99.90;;;;;;4901095;29;20230;-72
2020/12/16 16:45:21;;;;;;;1.57;1.00;;;11.20;99.90;;;;;;4908072;29;20217;-72
2020/12/16 16:47:48;;;;;;;1.47;0.90;;;11.20;99.90;;;;;;4899827;29;20226;-73
2020/12/16 16:50:16;;;;;;;1.53;0.90;;;11.10;99.90;;;;;;4897765;29;20221;-73
2020/12/16 16:52:42;;;;;;;4.47;0.80;;;11.00;99.90;;;;;;4898146;29;20230;-73
2020/12/16 16:55:09;;;;;;;1.90;1.00;;;11.00;99.90;;;;;;4897606;29;20566;-73
2020/12/16 16:57:36;;;;;;;2.00;0.93;;;10.90;99.90;;;;;;4898104;29;20210;-73
2020/12/16 17:00:05;;;;;;;1.57;0.97;;;10.70;99.90;;;;;;4897997;29;20235;-73
2020/12/16 17:02:32;;;;;;;1.10;0.90;;;10.50;99.90;;;;;;4898325;29;20233;-72
2020/12/16 17:05:00;;;;;;;0.97;0.70;;;10.60;99.90;;;;;;4909913;29;20224;-73
2020/12/16 17:07:26;;;;;;;1.77;0.90;;;10.50;99.90;;;;;;4918482;29;20309;-72
2020/12/16 17:09:52;;;;;;;2.00;1.13;;;10.60;99.90;;;;;;4919634;29;20214;-72
2020/12/16 17:12:19;;;;;;;2.07;1.17;;;10.60;99.90;;;;;;4913683;29;20241;-72
2020/12/16 17:14:46;;;;;;;3.33;1.07;;;10.60;99.90;;;;;;4916367;29;20213;-72
2020/12/16 17:17:14;;;;;;;2.70;1.10;;;10.50;99.90;;;;;;4917093;29;20249;-72
2020/12/16 17:19:40;;;;;;;2.90;1.47;;;10.60;99.90;;;;;;4917996;29;20248;-72
2020/12/16 17:22:08;;;;;;;3.77;1.20;;;10.70;99.90;;;;;;4916146;29;20213;-73
2020/12/16 17:24:34;;;;;;;3.17;1.63;;;10.70;99.90;;;;;;4921271;29;20602;-73
2020/12/16 17:27:02;;;;;;;2.13;1.33;;;10.70;99.90;;;;;;4914397;29;20585;-73
2020/12/16 17:29:29;;;;;;;2.53;1.20;;;10.70;99.90;;;;;;4916156;29;20220;-73
2020/12/16 17:31:55;;;;;;;2.40;1.33;;;10.60;99.90;;;;;;4915213;29;20602;-73
2020/12/16 17:34:21;;;;;;;2.77;1.20;;;10.60;99.90;;;;;;4922586;29;20221;-73
2020/12/16 17:36:47;;;;;;;2.50;1.13;;;10.70;99.90;;;;;;4922414;29;20554;-73
2020/12/16 17:39:14;;;;;;;2.10;1.17;;;10.60;99.90;;;;;;4922553;29;20225;-73
2020/12/16 17:41:45;;;;;;;2.40;1.40;;;10.60;99.90;;;;;;4922737;29;20214;-73
2020/12/16 17:44:11;;;;;;;1.93;0.97;;;10.70;99.90;;;;;;4922551;29;20233;-73
2020/12/16 17:46:38;;;;;;;2.30;1.37;;;10.70;99.90;;;;;;4922614;29;20605;-72
2020/12/16 17:49:05;;;;;;;2.07;1.30;;;10.80;99.90;;;;;;4922679;29;20550;-73
2020/12/16 17:51:31;;;;;;;1.97;1.30;;;10.80;99.90;;;;;;4922248;29;20213;-72
2020/12/16 17:53:58;;;;;;;2.63;1.10;;;10.90;99.90;;;;;;4922474;29;20234;-72
2020/12/16 17:56:25;;;;;;;2.50;1.33;;;10.90;99.90;;;;;;4922280;29;20707;-72
2020/12/16 17:58:52;;;;;;;1.90;1.13;;;10.90;99.90;;;;;;4921211;29;20277;-71
2020/12/16 18:01:18;;;;;;;2.60;1.20;;;10.90;99.90;;;;;;4902824;29;20654;-77
2020/12/16 18:03:44;;;;;;;4.17;1.20;;;10.80;99.90;;;;;;4902470;29;20237;-73
2020/12/16 18:06:11;;;;;;;1.93;1.03;;;10.80;99.90;;;;;;4903380;29;20242;-78
2020/12/16 18:08:37;;;;;;;3.30;1.73;;;10.80;99.90;;;;;;4903705;29;20214;-76
2020/12/16 18:11:04;;;;;;;1.60;1.30;;;10.80;99.90;;;;;;4921436;29;20214;-76
2020/12/16 18:13:31;;;;;;;2.43;1.10;;;10.80;99.90;;;;;;4922853;29;20287;-74
2020/12/16 18:15:58;;;;;;;2.47;1.33;;;10.80;99.90;;;;;;4922710;29;20220;-77
2020/12/16 18:18:24;;;;;;;2.20;1.40;;;10.80;99.90;;;;;;4917818;29;20233;-74
2020/12/16 18:20:50;;;;;;;1.87;1.20;;;10.90;99.90;;;;;;4917645;29;20210;-78
2020/12/16 18:23:16;;;;;;;2.70;1.10;;;10.90;99.90;;;;;;4917163;29;20617;-76
2020/12/16 18:25:44;;;;;;;2.10;1.30;;;10.90;99.90;;;;;;4917768;29;20233;-73
2020/12/16 18:28:11;;;;;;;2.97;1.30;;;10.90;99.90;;;;;;4917088;29;20664;-71
2020/12/16 18:30:38;;;;;;;1.93;1.30;;;10.80;99.90;;;;;;4917690;29;20213;-72
2020/12/16 18:33:05;;;;;;;2.03;1.20;;;10.80;99.90;;;;;;4918011;29;20241;-75
2020/12/16 18:35:32;;;;;;;2.00;1.07;;;10.80;99.90;;;;;;4917909;29;20301;-71
2020/12/16 18:37:58;;;;;;;2.33;1.20;;;10.70;99.90;;;;;;4919446;29;20206;-72
2020/12/16 18:40:24;;;;;;;2.07;1.20;;;10.70;99.90;;;;;;4918887;29;20564;-72
2020/12/16 18:42:52;;;;;;;2.47;1.40;;;10.70;99.90;;;;;;4919198;29;20230;-71
2020/12/16 18:45:19;;;;;;;2.07;1.10;;;10.70;99.90;;;;;;4919271;29;20256;-70
2020/12/16 18:47:46;;;;;;;1.93;1.30;;;10.70;99.90;;;;;;4918697;29;20238;-72
2020/12/16 18:50:14;;;;;;;1.87;1.10;;;10.80;99.90;;;;;;4919143;29;20206;-72
2020/12/16 18:52:42;;;;;;;2.50;1.33;;;10.70;99.90;;;;;;4918805;29;20229;-73
2020/12/16 18:55:08;;;;;;;1.87;1.00;;;10.70;99.90;;;;;;4918927;29;20220;-72
2020/12/16 18:57:35;;;;;;;2.60;1.50;;;10.80;99.90;;;;;;4919011;29;20217;-73
2020/12/16 19:00:04;;;;;;;1.80;1.20;;;10.70;99.90;;;;;;4919073;29;20215;-70
2020/12/16 19:02:32;;;;;;;1.50;1.20;;;10.70;99.90;;;;;;4918575;29;20232;-71
2020/12/16 19:04:59;;;;;;;1.77;1.33;;;10.70;99.90;;;;;;4918665;29;20288;-72
2020/12/16 19:07:25;;;;;;;3.53;1.30;;;10.70;99.90;;;;;;4918404;29;20233;-72
2020/12/16 19:09:52;;;;;;;1.73;1.20;;;10.70;99.90;;;;;;4918659;29;20209;-72
2020/12/16 19:12:18;;;;;;;2.00;1.40;;;10.70;99.90;;;;;;4918365;29;20741;-73
2020/12/16 19:14:44;;;;;;;2.77;1.40;;;10.80;99.90;;;;;;4918536;29;20261;-71
2020/12/16 19:17:10;;;;;;;2.67;1.70;;;10.80;99.90;;;;;;4917919;29;20216;-71
2020/12/16 19:19:36;;;;;;;2.70;1.23;;;10.80;99.90;;;;;;4918224;29;20214;-71
2020/12/16 19:22:03;;;;;;;1.80;1.20;;;10.90;99.90;;;;;;4918249;29;20229;-73
2020/12/16 19:24:30;;;;;;;2.27;1.20;;;10.90;99.90;;;;;;4917372;29;20214;-70
2020/12/16 19:26:58;;;;;;;2.40;1.37;;;10.90;99.90;;;;;;4916712;29;20237;-72
2020/12/16 19:29:24;;;;;;;2.60;1.20;;;10.80;99.90;;;;;;4909464;29;20242;-70
2020/12/16 19:31:51;;;;;;;2.87;1.40;;;10.80;99.90;;;;;;4917629;29;20261;-71
2020/12/16 19:34:17;;;;;;;3.23;1.37;;;10.70;99.90;;;;;;4901916;29;20230;-72
2020/12/16 19:36:45;;;;;;;1.83;1.10;;;10.70;99.90;;;;;;4898646;29;20217;-71
2020/12/16 19:39:13;;;;;;;2.07;1.30;;;10.70;99.90;;;;;;4898615;29;20220;-72
2020/12/16 19:41:42;;;;;;;2.43;1.13;;;10.70;99.90;;;;;;4897501;29;20690;-72
2020/12/16 19:44:09;;;;;;;2.10;1.40;;;10.60;99.90;;;;;;4897283;29;20237;-73
2020/12/16 19:46:41;;;;;;;2.27;1.37;;;10.60;99.90;;;;;;4898065;29;20229;-73
2020/12/16 19:49:07;;;;;;;2.40;1.30;;;10.60;99.90;;;;;;4898591;29;20210;-70
2020/12/16 19:51:34;;;;;;;2.13;1.30;;;10.70;99.90;;;;;;4898595;29;20210;-72
2020/12/16 19:54:00;;;;;;;1.93;1.33;;;10.60;99.90;;;;;;4898327;29;20238;-72
2020/12/16 19:56:27;;;;;;;2.27;1.30;;;10.70;99.90;;;;;;4898476;29;20210;-72
2020/12/16 19:58:53;;;;;;;2.53;1.40;;;10.60;99.90;;;;;;4905304;29;20561;-73
2020/12/16 20:01:19;;;;;;;2.47;1.37;;;10.60;99.90;;;;;;4916967;29;20213;-72
2020/12/16 20:03:46;;;;;;;2.60;1.27;;;10.60;99.90;;;;;;4915632;29;20218;-73
2020/12/16 20:06:12;;;;;;;2.10;1.17;;;10.50;99.90;;;;;;4916804;29;20252;-73
2020/12/16 20:08:38;;;;;;;3.83;1.50;;;10.60;99.90;;;;;;4915744;29;20213;-71
2020/12/16 20:11:04;;;;;;;1.10;1.00;;;10.60;99.90;;;;;;4917642;29;20210;-73
2020/12/16 20:13:31;;;;;;;1.90;1.10;;;10.60;99.90;;;;;;4917535;29;20233;-73
2020/12/16 20:15:58;;;;;;;1.57;1.30;;;10.60;99.90;;;;;;4917360;29;20224;-73
2020/12/16 20:18:24;;;;;;;2.83;1.23;;;10.70;99.90;;;;;;4917337;29;20209;-71
2020/12/16 20:20:50;;;;;;;1.63;1.20;;;10.70;99.90;;;;;;4917472;29;20210;-73
2020/12/16 20:23:16;;;;;;;3.30;1.33;;;10.70;99.90;;;;;;4917314;29;20238;-72
2020/12/16 20:25:42;;;;;;;1.73;1.13;;;10.70;99.90;;;;;;4917161;29;20265;-73
2020/12/16 20:28:09;;;;;;;1.27;1.10;;;10.80;99.90;;;;;;4917228;29;20210;-73
2020/12/16 20:30:36;;;;;;;2.57;1.40;;;10.80;99.90;;;;;;4916808;29;20225;-72
2020/12/16 20:33:02;;;;;;;1.63;1.07;;;10.70;99.90;;;;;;4917142;29;20233;-73
2020/12/16 20:35:29;;;;;;;2.20;1.20;;;10.70;99.90;;;;;;4917071;29;20214;-73
2020/12/16 20:37:55;;;;;;;2.20;1.50;;;10.70;99.90;;;;;;4916756;29;20691;-73
2020/12/16 20:40:21;;;;;;;2.03;1.10;;;10.80;99.90;;;;;;4917146;29;20205;-74
2020/12/16 20:42:47;;;;;;;2.63;1.13;;;10.80;99.90;;;;;;4916661;29;20257;-73
2020/12/16 20:45:13;;;;;;;2.80;1.30;;;10.80;99.90;;;;;;4917117;29;20210;-73
2020/12/16 20:47:41;;;;;;;2.00;1.23;;;10.80;99.90;;;;;;4916883;29;20245;-71
2020/12/16 20:50:09;;;;;;;1.70;0.90;;;10.80;99.90;;;;;;4916532;29;20700;-73
2020/12/16 20:52:38;;;;;;;2.47;1.20;;;10.80;99.90;;;;;;4916966;29;20237;-73
2020/12/16 20:55:05;;;;;;;1.80;1.00;;;10.70;99.90;;;;;;4916728;29;20213;-71
2020/12/16 20:57:31;;;;;;;3.93;1.10;;;10.70;99.90;;;;;;4916332;29;20209;-72
2020/12/16 20:59:57;;;;;;;2.73;1.10;;;10.70;99.90;;;;;;4916489;29;20212;-73
2020/12/16 21:02:24;;;;;;;2.10;1.23;;;10.70;99.90;;;;;;4916307;29;20237;-72
2020/12/16 21:04:51;;;;;;;1.97;1.30;;;10.80;99.90;;;;;;4916431;29;20205;-73
2020/12/16 21:07:17;;;;;;;1.67;1.00;;;10.80;99.90;;;;;;4916611;29;20240;-73
2020/12/16 21:09:44;;;;;;;3.27;1.20;;;10.80;99.90;;;;;;4916799;29;20210;-72
2020/12/16 21:12:10;;;;;;;2.47;1.20;;;10.90;99.90;;;;;;4916318;29;20669;-71
2020/12/16 21:14:36;;;;;;;1.93;1.37;;;10.90;99.90;;;;;;4916941;29;20213;-72
2020/12/16 21:17:03;;;;;;;1.37;0.83;;;10.80;99.90;;;;;;4916671;29;20210;-74
2020/12/16 21:19:29;;;;;;;1.63;0.93;;;10.90;99.90;;;;;;4916748;29;20209;-73
2020/12/16 21:21:59;;;;;;;1.53;1.10;;;10.90;99.90;;;;;;4916498;29;20213;-70
2020/12/16 21:24:25;;;;;;;1.90;0.90;;;10.90;99.90;;;;;;4916570;29;20558;-72
2020/12/16 21:26:52;;;;;;;1.60;0.97;;;10.90;99.90;;;;;;4916196;29;20241;-72
2020/12/16 21:29:18;;;;;;;1.43;1.00;;;10.90;99.90;;;;;;4916819;29;20221;-72
2020/12/16 21:31:44;;;;;;;2.60;1.30;;;10.90;99.90;;;;;;4916290;29;20213;-72
2020/12/16 21:34:11;;;;;;;2.13;1.33;;;10.90;99.90;;;;;;4916526;29;20330;-70
2020/12/16 21:36:37;;;;;;;2.03;1.13;;;10.90;99.90;;;;;;4915646;29;20202;-72
2020/12/16 21:39:05;;;;;;;1.87;1.00;;;11.00;99.90;;;;;;4911019;29;20214;-73
2020/12/16 21:41:31;;;;;;;1.50;1.10;;;10.90;99.90;;;;;;4915800;29;20310;-70
2020/12/16 21:43:57;;;;;;;2.53;1.40;;;10.90;99.90;;;;;;4915548;29;20269;-72
2020/12/16 21:46:24;;;;;;;1.07;0.80;;;10.90;99.90;;;;;;4915677;29;20249;-73
2020/12/16 21:48:50;;;;;;;1.93;1.13;;;10.90;99.90;;;;;;4915936;29;20682;-73
2020/12/16 21:51:19;;;;;;;2.00;1.20;;;10.90;99.90;;;;;;4919599;29;20213;-73
2020/12/16 21:53:45;;;;;;;1.83;1.30;;;10.90;99.90;;;;;;4919523;29;20256;-72
2020/12/16 21:56:13;;;;;;;3.03;1.30;;;11.00;99.90;;;;;;4918530;29;20213;-73
2020/12/16 21:58:40;;;;;;;2.03;1.33;;;10.90;99.90;;;;;;4918738;29;20198;-73
2020/12/16 22:01:07;;;;;;;1.70;0.90;;;11.00;99.90;;;;;;4916884;29;20610;-71
2020/12/16 22:03:33;;;;;;;1.57;1.00;;;11.10;99.90;;;;;;4918839;29;20273;-71
2020/12/16 22:05:59;;;;;;;1.60;1.00;;;11.10;99.90;;;;;;4919020;29;20206;-73
2020/12/16 22:08:25;;;;;;;1.80;1.17;;;11.10;99.90;;;;;;4917199;29;20562;-72
2020/12/16 22:10:53;;;;;;;2.67;1.07;;;11.10;99.90;;;;;;4918831;29;20213;-72
2020/12/16 22:13:20;;;;;;;2.03;1.10;;;11.10;99.90;;;;;;4917477;29;20320;-73
2020/12/16 22:15:46;;;;;;;1.77;0.90;;;11.10;99.90;;;;;;4918369;29;20205;-71
2020/12/16 22:18:12;;;;;;;1.47;1.10;;;11.20;99.90;;;;;;4918382;29;20687;-73
2020/12/16 22:20:39;;;;;;;1.80;1.10;;;11.20;99.90;;;;;;4919254;29;20572;-72
2020/12/16 22:23:05;;;;;;;2.10;1.20;;;11.10;99.90;;;;;;4919286;29;20735;-72
2020/12/16 22:25:31;;;;;;;2.30;1.30;;;11.10;99.90;;;;;;4919585;29;20209;-73
2020/12/16 22:27:57;;;;;;;1.50;1.10;;;11.20;99.90;;;;;;4919179;29;20241;-72
2020/12/16 22:30:25;;;;;;;1.90;0.97;;;11.10;99.90;;;;;;4919527;29;20205;-70
2020/12/16 22:32:51;;;;;;;1.37;0.93;;;11.20;99.90;;;;;;4919408;29;20230;-71
2020/12/16 22:35:17;;;;;;;2.47;1.17;;;11.30;99.90;;;;;;4915557;29;20679;-71
